EKAHENBR

Guest
Details From EKAH - Aarhus
To ENBR - Bergen Lufthavn Flesland
Flight Number -
Tags Generated
Created
Modified
Stats Distance 294 nm / 545 km
Max Altitude 0 ft / 0 m
Waypoints 3
Social Downloads 0
Likes 0
Share VATSIM

Download

Looking for another format? Having issues loading an existing format? Contact us
Advertisement - Login to hide

Notes

Generated

Route

EKAH R2222 ENBR

ID Type Via Altitude Latitude Longitude Leg Dist Tot Dist Heading (true) Name
O EKAH APT - 0 ft / 0 m 56.30549˚ 10.59757˚ - 0 nm - -
R2222 FIX - 0 ft / 0 m 60.30423˚ 5.21449˚ 293 nm 293 nm 327° / 322° -
O ENBR APT - 0 ft / 0 m 60.30662˚ 5.21370˚ 0 nm 294 nm 351° / 351° -

Altitude Profile

Advertisement - Login to hide

Weather


0- 5 10 15 20 25 30 35+ Temperature / ° C

Clouds and Precipitation
Forecast for 2018-05-22 00:00 UTC. Updated 2 hours ago

Ground ~20,000 ft ~40,000 ft Winds

EKAH

Details ICAO EKAH (AAR)
Name Aarhus
Region Denmark / Faroe Islands
Timezone Europe/Copenhagen (UTC+2.0)
Stats Elevation 82 ft / 25 m (AMSL)
Location 56.304265° 10.619452°
Runways 2
Magnetic Variation 3.117° E

METAR

EKAH 220120Z AUTO 02002KT 9999NDV NCD 09/06 Q1020

Decode

TAF

TAF EKAH 211651Z 2118/2218 11010KT CAVOK= TAF EKBI 211651Z 2118/2218 10010KT CAVOK

Decode

Departure Runways

ID Width Length Bearing (true) Bearing (mag) Surface Threshold Offset Overrun Length
10L 75 ft / 23 m 9,081 ft / 2,768 m 100.30° 97.18° Asphalt 0 ft / 0 m 0 ft / 0 m
10R 148 ft / 45 m 8,837 ft / 2,693 m 100.29° 97.17° Asphalt 0 ft / 0 m 902 ft / 275 m
28L 148 ft / 45 m 8,837 ft / 2,693 m 280.33° 277.21° Asphalt 0 ft / 0 m 738 ft / 225 m
28R 75 ft / 23 m 9,081 ft / 2,768 m 280.34° 277.22° Asphalt 0 ft / 0 m 0 ft / 0 m

ENBR

Details ICAO ENBR (BGO)
Name Bergen Lufthavn Flesland
Region Norway
Timezone Europe/Oslo (UTC+2.0)
Stats Elevation 165 ft / 50 m (AMSL)
Location 60.293388° 5.218140°
Runways 1
Magnetic Variation 0.919° E

METAR

ENBR 220050Z 13004KT CAVOK 10/03 Q1022 RMK WIND 1200FT 15010KT

Decode

TAF

TAF ENBR 212300Z 2200/2224 18005KT CAVOK BECMG 2208/2211 34010KT

Decode

Destination Runways

ID Width Length Bearing (true) Bearing (mag) Surface Threshold Offset Overrun Length
17 148 ft / 45 m 9,793 ft / 2,985 m 170.56° 169.64° Asphalt 886 ft / 270 m 0 ft / 0 m
35 148 ft / 45 m 9,793 ft / 2,985 m 350.57° 349.65° Asphalt 886 ft / 270 m 0 ft / 0 m

Approach Navaids

Runway Type Ident Frequency Range Bearing (true) Bearing (mag) Slope Elevation
17 Localiser BR 109.90 MHz 18 nm / 33 km 170.56° 169.65° - 165 ft / 50 m (AMSL)
17 Glidescope BR 109.90 MHz 10 nm / 19 km 170.56° 169.65° 3.10° 165 ft / 50 m (AMSL)
35 Localiser BG 110.50 MHz 18 nm / 33 km 350.55° 349.63° - 165 ft / 50 m (AMSL)
35 Glidescope BG 110.50 MHz 10 nm / 19 km 350.56° 349.65° 3.00° 165 ft / 50 m (AMSL)

Popular Alternatives